Time;durP1;ratioP1;P1;durP2;ratioP2;P2;SDS_P1;SDS_P2;PMS_P1;PMS_P2;Temp;Humidity;BMP_temperature;BMP_pressure;BME280_temperature;BME280_humidity;BME280_pressure;Samples;Min_cycle;Max_cycle;Signal;HPM_P1;HPM_P2
2022/05/11 00:02:24;;;;;;;;;;;;;;;13.62;56.62;96710.55;1683912;85;20072;-84
2022/05/11 00:04:50;;;;;;;;;;;;;;;13.61;57.08;96708.94;1690485;84;20088;-84
2022/05/11 00:07:15;;;;;;;;;;;;;;;13.63;56.52;96698.30;1698297;84;20123;-84
2022/05/11 00:09:41;;;;;;;;;;;;;;;13.66;56.41;96709.66;1698261;85;20135;-84
2022/05/11 00:12:08;;;;;;;;;;;;;;;13.66;56.75;96700.02;1698422;85;20119;-84
2022/05/11 00:14:34;;;;;;;;;;;;;;;13.67;56.72;96701.66;1698335;85;20372;-84
2022/05/11 00:16:59;;;;;;;;;;;;;;;13.66;56.73;96692.68;1698300;84;20139;-84
2022/05/11 00:19:27;;;;;;;;;;;;;;;13.68;56.85;96687.59;1675582;84;20311;-84
2022/05/11 00:21:52;;;;;;;;;;;;;;;13.73;56.62;96685.20;1725265;83;20097;-84
2022/05/11 00:24:18;;;;;;;;;;;;;;;13.74;56.98;96685.51;1710722;84;20114;-84
2022/05/11 00:26:45;;;;;;;;;;;;;;;13.72;56.44;96682.28;1684836;84;20174;-84
2022/05/11 00:29:10;;;;;;;;;;;;;;;13.72;57.10;96683.59;1707555;84;20275;-85
2022/05/11 00:31:36;;;;;;;;;;;;;;;13.72;57.21;96680.17;1691820;84;20138;-84
2022/05/11 00:34:02;;;;;;;;;;;;;;;13.69;56.98;96683.98;1691992;84;20090;-84
2022/05/11 00:36:27;;;;;;;;;;;;;;;13.72;57.23;96685.40;1666745;86;20104;-84
2022/05/11 00:38:53;;;;;;;;;;;;;;;13.71;57.35;96687.70;1696458;84;20146;-84
2022/05/11 00:41:18;;;;;;;;;;;;;;;13.67;57.19;96689.91;1698116;85;20448;-84
2022/05/11 00:43:56;;;;;;;;;;;;;;;13.66;57.40;96689.57;1699585;85;20193;-84
2022/05/11 00:46:31;;;;;;;;;;;;;;;13.64;57.05;96689.46;1698924;85;20392;-84
2022/05/11 00:51:45;;;;;;;;;;;;;;;13.63;57.33;96686.05;1699332;84;20352;-84
2022/05/11 00:54:11;;;;;;;;;;;;;;;13.61;57.43;96690.66;1699237;84;20463;-84
2022/05/11 00:56:39;;;;;;;;;;;;;;;13.61;57.61;96688.55;1699271;85;20150;-84
2022/05/11 00:59:10;;;;;;;;;;;;;;;13.61;57.65;96688.05;1699240;84;20155;-84
2022/05/11 01:01:37;;;;;;;;;;;;;;;13.61;57.99;96686.74;1697711;84;20372;-84
2022/05/11 01:04:05;;;;;;;;;;;;;;;13.62;57.82;96693.58;1696213;85;20130;-84
2022/05/11 01:06:31;;;;;;;;;;;;;;;13.63;58.36;96688.66;1696199;85;20113;-84
2022/05/11 01:08:59;;;;;;;;;;;;;;;13.64;58.22;96687.66;1696287;85;20125;-84
2022/05/11 01:11:24;;;;;;;;;;;;;;;13.66;58.30;96685.66;1696165;85;20109;-84
2022/05/11 01:13:50;;;;;;;;;;;;;;;13.67;58.21;96685.19;1696045;85;20279;-84
2022/05/11 01:16:15;;;;;;;;;;;;;;;13.67;58.15;96689.91;1696235;85;20094;-84
2022/05/11 01:18:41;;;;;;;;;;;;;;;13.70;57.42;96688.20;1696166;85;20165;-84
2022/05/11 01:21:07;;;;;;;;;;;;;;;13.78;57.87;96693.25;1696209;85;20145;-84
2022/05/11 01:23:39;;;;;;;;;;;;;;;13.83;57.82;96684.86;1696304;85;20422;-84
2022/05/11 01:26:04;;;;;;;;;;;;;;;13.86;58.16;96684.96;1696457;85;20117;-84
2022/05/11 01:28:30;;;;;;;;;;;;;;;13.85;57.49;96682.05;1696347;85;20133;-84
2022/05/11 01:31:07;;;;;;;;;;;;;;;13.82;58.00;96683.22;1716237;82;20141;-84
2022/05/11 01:33:34;;;;;;;;;;;;;;;13.84;57.37;96674.72;1686342;85;20092;-84
2022/05/11 01:36:30;;;;;;;;;;;;;;;13.87;58.00;96674.32;1683019;85;20175;-84
2022/05/11 01:38:59;;;;;;;;;;;;;;;13.88;57.51;96669.40;1717790;83;20161;-84
2022/05/11 01:41:29;;;;;;;;;;;;;;;14.01;56.71;96669.45;1711293;84;20090;-84
2022/05/11 01:43:54;;;;;;;;;;;;;;;14.12;57.49;96668.86;1710068;84;20101;-84
2022/05/11 01:46:20;;;;;;;;;;;;;;;14.13;57.74;96670.98;1679822;85;20148;-84
2022/05/11 01:48:45;;;;;;;;;;;;;;;14.09;57.49;96667.95;1705140;84;20105;-84
2022/05/11 01:51:12;;;;;;;;;;;;;;;14.09;57.20;96668.45;1697306;85;20341;-84
2022/05/11 01:53:38;;;;;;;;;;;;;;;14.07;57.70;96666.05;1739926;83;20095;-84
2022/05/11 01:56:04;;;;;;;;;;;;;;;14.07;57.56;96666.55;1739793;83;20088;-84
2022/05/11 01:58:29;;;;;;;;;;;;;;;14.05;58.03;96664.64;1739872;83;20324;-84
2022/05/11 02:00:55;;;;;;;;;;;;;;;14.03;57.62;96662.72;1738721;83;20135;-84
2022/05/11 02:03:21;;;;;;;;;;;;;;;14.04;58.07;96659.91;1734831;83;20088;-84
2022/05/11 02:08:34;;;;;;;;;;;;;;;13.98;58.03;96656.76;1734916;83;20132;-84
2022/05/11 02:11:00;;;;;;;;;;;;;;;13.93;58.06;96652.63;1734825;83;20345;-84
2022/05/11 02:13:28;;;;;;;;;;;;;;;13.98;57.98;96657.26;1734788;83;20230;-84
2022/05/11 02:15:53;;;;;;;;;;;;;;;13.95;57.75;96654.54;1734838;83;20151;-84
2022/05/11 02:18:19;;;;;;;;;;;;;;;13.95;58.05;96654.54;1734860;83;20428;-84
2022/05/11 02:20:44;;;;;;;;;;;;;;;14.03;57.82;96664.83;1734785;83;20115;-84
2022/05/11 02:23:12;;;;;;;;;;;;;;;14.04;58.24;96663.83;1735042;83;20350;-84
2022/05/11 02:25:38;;;;;;;;;;;;;;;14.02;58.46;96659.80;1734921;83;20099;-84
2022/05/11 02:28:03;;;;;;;;;;;;;;;14.00;58.22;96661.31;1716075;83;20143;-84
2022/05/11 02:30:30;;;;;;;;;;;;;;;14.01;58.66;96656.39;1726057;82;20116;-84
2022/05/11 02:32:55;;;;;;;;;;;;;;;14.01;58.53;96651.66;1677704;85;20152;-84
2022/05/11 02:35:21;;;;;;;;;;;;;;;14.04;58.29;96646.05;1717525;84;20141;-84
2022/05/11 02:37:56;;;;;;;;;;;;;;;14.05;58.78;96651.57;1717416;84;20101;-84
2022/05/11 02:40:26;;;;;;;;;;;;;;;14.02;58.71;96650.66;1718948;83;20124;-84
2022/05/11 02:42:52;;;;;;;;;;;;;;;13.97;58.65;96644.70;1722877;83;20102;-84
2022/05/11 02:45:18;;;;;;;;;;;;;;;13.93;59.17;96642.18;1722996;83;20090;-84
2022/05/11 02:47:43;;;;;;;;;;;;;;;13.91;59.18;96642.88;1722995;83;20117;-84
2022/05/11 02:50:10;;;;;;;;;;;;;;;13.92;59.01;96643.69;1722984;83;20120;-84
2022/05/11 02:52:36;;;;;;;;;;;;;;;14.01;58.74;96643.33;1718773;83;20178;-84
2022/05/11 02:55:02;;;;;;;;;;;;;;;14.03;58.87;96645.23;1717510;84;20170;-84
2022/05/11 02:57:27;;;;;;;;;;;;;;;14.07;59.22;96645.14;1687296;85;20108;-84
2022/05/11 02:59:53;;;;;;;;;;;;;;;14.09;59.05;96642.33;1683165;85;20088;-84
2022/05/11 03:02:20;;;;;;;;;;;;;;;14.11;58.15;96642.94;1722987;83;20172;-84
2022/05/11 03:04:47;;;;;;;;;;;;;;;14.21;58.53;96639.95;1687186;85;20144;-84
2022/05/11 03:07:13;;;;;;;;;;;;;;;14.28;57.50;96636.34;1683048;85;20148;-84
2022/05/11 03:09:38;;;;;;;;;;;;;;;14.34;58.59;96634.25;1722930;83;20089;-84
2022/05/11 03:12:05;;;;;;;;;;;;;;;14.42;58.32;96639.28;1692616;84;20114;-83
2022/05/11 03:14:30;;;;;;;;;;;;;;;14.54;56.74;96636.11;1710446;84;20128;-84
2022/05/11 03:16:56;;;;;;;;;;;;;;;14.59;58.18;96626.66;1710395;84;20161;-84
2022/05/11 03:19:21;;;;;;;;;;;;;;;14.57;58.69;96628.66;1710286;84;20098;-84
2022/05/11 03:21:47;;;;;;;;;;;;;;;14.56;58.14;96623.64;1710431;84;20126;-84
2022/05/11 03:24:13;;;;;;;;;;;;;;;14.56;57.88;96628.88;1710482;84;20129;-83
2022/05/11 03:26:39;;;;;;;;;;;;;;;14.63;56.55;96628.36;1707144;82;20777;-84
2022/05/11 03:29:05;;;;;;;;;;;;;;;14.77;56.30;96622.63;1659879;87;20114;-84
2022/05/11 03:31:33;;;;;;;;;;;;;;;14.86;57.90;96624.85;1679736;84;20147;-84
2022/05/11 03:36:44;;;;;;;;;;;;;;;14.86;57.69;96627.97;1690803;84;20154;-84
2022/05/11 03:39:10;;;;;;;;;;;;;;;14.85;57.96;96621.12;1690953;85;20094;-84
2022/05/11 03:41:36;;;;;;;;;;;;;;;14.88;57.21;96626.75;1691131;84;20117;-84
2022/05/11 03:44:02;;;;;;;;;;;;;;;14.95;57.74;96628.85;1690992;85;20125;-84
2022/05/11 03:46:28;;;;;;;;;;;;;;;15.00;57.52;96624.34;1691187;85;20109;-84
2022/05/11 03:48:53;;;;;;;;;;;;;;;15.03;57.08;96627.05;1691154;85;20113;-84
2022/05/11 03:51:19;;;;;;;;;;;;;;;15.03;57.04;96632.28;1690916;85;20355;-84
2022/05/11 03:53:44;;;;;;;;;;;;;;;15.07;57.12;96629.55;1691149;85;20106;-84
2022/05/11 03:56:10;;;;;;;;;;;;;;;15.10;57.13;96631.25;1691029;85;20094;-84
2022/05/11 03:58:36;;;;;;;;;;;;;;;15.15;56.62;96623.61;1691080;85;20117;-84
2022/05/11 04:01:01;;;;;;;;;;;;;;;15.21;56.72;96624.59;1690338;84;20114;-84
2022/05/11 04:03:27;;;;;;;;;;;;;;;15.25;56.66;96625.28;1691125;85;20310;-84
2022/05/11 04:05:53;;;;;;;;;;;;;;;15.25;56.64;96621.36;1709489;84;20222;-85
2022/05/11 04:08:18;;;;;;;;;;;;;;;15.25;57.23;96621.86;1709649;84;20159;-84
2022/05/11 04:10:44;;;;;;;;;;;;;;;15.29;55.91;96623.89;1705966;84;20119;-84
2022/05/11 04:13:09;;;;;;;;;;;;;;;15.37;57.14;96624.16;1708916;84;20077;-84
2022/05/11 04:15:35;;;;;;;;;;;;;;;15.36;57.58;96629.09;1646906;84;20375;-84
2022/05/11 04:18:01;;;;;;;;;;;;;;;15.36;57.28;96626.98;1709195;84;20102;-84
2022/05/11 04:20:27;;;;;;;;;;;;;;;15.37;58.00;96624.16;1709044;84;20122;-84
2022/05/11 04:22:52;;;;;;;;;;;;;;;15.34;58.17;96620.64;1705011;84;20359;-84
2022/05/11 04:25:18;;;;;;;;;;;;;;;15.37;57.74;96622.84;1708457;84;20117;-84
2022/05/11 04:27:45;;;;;;;;;;;;;;;15.43;57.47;96621.21;1709409;84;20138;-84
2022/05/11 04:30:12;;;;;;;;;;;;;;;15.52;57.19;96617.37;1700029;84;20125;-84
2022/05/11 04:32:38;;;;;;;;;;;;;;;15.61;56.43;96624.00;1704893;84;20110;-84
2022/05/11 04:35:04;;;;;;;;;;;;;;;15.68;57.75;96626.11;1705220;84;20331;-84
2022/05/11 04:37:30;;;;;;;;;;;;;;;15.71;57.30;96628.81;1705074;84;20088;-84
2022/05/11 04:39:56;;;;;;;;;;;;;;;15.74;56.99;96629.19;1702222;84;20138;-84
2022/05/11 04:42:22;;;;;;;;;;;;;;;15.79;55.78;96624.66;1676273;86;20082;-84
2022/05/11 04:44:48;;;;;;;;;;;;;;;15.89;56.65;96626.31;1722690;83;20089;-84
2022/05/11 04:47:14;;;;;;;;;;;;;;;15.97;55.78;96627.91;1722983;83;20097;-84
2022/05/11 04:49:40;;;;;;;;;;;;;;;16.06;55.72;96624.01;1722817;83;20112;-84
2022/05/11 04:52:09;;;;;;;;;;;;;;;16.12;56.58;96625.81;1722775;83;20164;-84
2022/05/11 04:54:36;;;;;;;;;;;;;;;16.13;55.96;96623.48;1722740;83;20082;-84
2022/05/11 04:57:02;;;;;;;;;;;;;;;16.14;55.82;96628.52;1722672;83;20599;-84
2022/05/11 04:59:28;;;;;;;;;;;;;;;16.14;56.85;96632.95;1722768;83;20098;-84
2022/05/11 05:01:54;;;;;;;;;;;;;;;16.12;56.00;96634.48;1718633;83;20350;-84
2022/05/11 05:04:20;;;;;;;;;;;;;;;16.14;56.51;96633.76;1687378;85;20115;-84
2022/05/11 05:06:45;;;;;;;;;;;;;;;16.16;56.65;96633.55;1687346;85;20151;-84
2022/05/11 05:09:11;;;;;;;;;;;;;;;16.15;55.57;96636.67;1682934;85;20311;-84
2022/05/11 05:11:36;;;;;;;;;;;;;;;16.17;56.06;96637.27;1691989;85;20378;-84
2022/05/11 05:14:05;;;;;;;;;;;;;;;16.23;56.28;96635.61;1715884;83;20097;-84
2022/05/11 05:16:32;;;;;;;;;;;;;;;16.25;57.07;96634.08;1687189;85;20351;-84
2022/05/11 05:18:57;;;;;;;;;;;;;;;16.25;55.71;96645.38;1686971;85;20373;-84
2022/05/11 05:21:23;;;;;;;;;;;;;;;16.31;55.75;96637.19;1687292;85;20155;-84
2022/05/11 05:23:49;;;;;;;;;;;;;;;16.36;56.26;96639.97;1690447;85;20129;-84
2022/05/11 05:26:15;;;;;;;;;;;;;;;16.33;56.92;96645.14;1690586;85;20323;-84
2022/05/11 05:31:24;;;;;;;;;;;;;;;16.32;56.26;96641.42;1694536;84;20173;-84
2022/05/11 05:33:55;;;;;;;;;;;;;;;16.38;55.40;96643.19;1728265;83;20386;-84
2022/05/11 05:36:17;;;;;;;;;;;;;;;16.46;55.54;96636.39;1694696;85;20111;-84
2022/05/11 05:38:43;;;;;;;;;;;;;;;16.53;55.06;96638.95;1690486;85;20088;-84
2022/05/11 05:41:10;;;;;;;;;;;;;;;16.62;54.42;96638.49;1694972;85;20135;-84
2022/05/11 05:43:35;;;;;;;;;;;;;;;16.70;55.13;96636.94;1677147;85;20107;-84
2022/05/11 05:46:01;;;;;;;;;;;;;;;16.80;53.77;96640.41;1700649;84;20116;-84
2022/05/11 05:48:27;;;;;;;;;;;;;;;16.91;54.84;96640.19;1702468;84;20130;-84
2022/05/11 05:50:52;;;;;;;;;;;;;;;16.96;54.13;96637.75;1728200;83;20136;-84
2022/05/11 05:53:19;;;;;;;;;;;;;;;17.03;54.13;96635.85;1728346;83;20081;-84
2022/05/11 05:55:51;;;;;;;;;;;;;;;17.09;53.88;96639.75;1728241;83;20117;-84
2022/05/11 05:58:17;;;;;;;;;;;;;;;17.18;53.45;96639.45;1728176;83;20117;-84
2022/05/11 06:00:43;;;;;;;;;;;;;;;17.26;53.23;96643.12;1728006;83;20124;-84
2022/05/11 06:03:11;;;;;;;;;;;;;;;17.35;52.69;96638.67;1728123;83;20097;-84
2022/05/11 06:05:37;;;;;;;;;;;;;;;17.44;53.00;96646.28;1728025;83;20112;-84
2022/05/11 06:08:03;;;;;;;;;;;;;;;17.48;52.72;96644.30;1701444;83;20136;-84
2022/05/11 06:10:29;;;;;;;;;;;;;;;17.55;52.37;96646.84;1726367;83;20326;-84
2022/05/11 06:12:54;;;;;;;;;;;;;;;17.62;52.16;96649.71;1725120;83;20088;-84
2022/05/11 06:15:20;;;;;;;;;;;;;;;17.70;51.86;96654.69;1725308;83;20112;-84
2022/05/11 06:17:46;;;;;;;;;;;;;;;17.77;51.93;96648.58;1723379;83;20151;-83
2022/05/11 06:20:12;;;;;;;;;;;;;;;17.82;52.18;96653.45;1713898;83;20078;-86
2022/05/11 06:22:38;;;;;;;;;;;;;;;17.88;51.08;96651.24;1729325;83;20168;-84
2022/05/11 06:25:04;;;;;;;;;;;;;;;17.95;51.25;96653.30;1724954;83;20089;-84
2022/05/11 06:27:30;;;;;;;;;;;;;;;18.01;51.06;96655.54;1729548;83;20132;-84
2022/05/11 06:29:58;;;;;;;;;;;;;;;18.07;50.95;96661.77;1740278;82;20130;-84
2022/05/11 06:32:24;;;;;;;;;;;;;;;18.14;50.86;96660.64;1720565;83;20323;-84
2022/05/11 06:34:51;;;;;;;;;;;;;;;18.23;50.69;96658.52;1726131;83;20126;-84
2022/05/11 06:37:17;;;;;;;;;;;;;;;18.31;50.43;96659.50;1724973;83;20158;-87
2022/05/11 06:39:43;;;;;;;;;;;;;;;18.39;49.99;96655.77;1724218;83;20110;-85
2022/05/11 06:42:09;;;;;;;;;;;;;;;18.46;50.05;96657.78;1723590;83;20140;-87
2022/05/11 06:44:35;;;;;;;;;;;;;;;18.54;49.13;96657.44;1717505;84;20097;-84
2022/05/11 06:47:02;;;;;;;;;;;;;;;18.59;49.13;96653.13;1682736;85;20124;-84
2022/05/11 06:49:28;;;;;;;;;;;;;;;18.69;48.78;96657.05;1716674;83;20366;-84
2022/05/11 06:51:53;;;;;;;;;;;;;;;18.78;49.43;96654.39;1714893;83;20128;-84
2022/05/11 06:59:48;;;;;;;;;;;;;;;19.06;47.84;96653.75;1691251;85;20358;-85
2022/05/11 07:02:13;;;;;;;;;;;;;;;19.16;47.93;96646.06;1688558;85;20176;-84
2022/05/11 07:04:40;;;;;;;;;;;;;;;19.28;47.53;96652.13;1689150;85;20119;-84
2022/05/11 07:07:06;;;;;;;;;;;;;;;19.38;47.42;96644.98;1690421;85;20138;-84
2022/05/11 07:09:32;;;;;;;;;;;;;;;19.46;48.07;96650.69;1691238;85;20119;-84
2022/05/11 07:12:21;;;;;;;;;;;;;;;19.55;46.76;96648.55;1680098;84;20452;-84
2022/05/11 07:14:51;;;;;;;;;;;;;;;19.65;46.65;96653.20;1685227;85;20119;-84
2022/05/11 07:17:34;;;;;;;;;;;;;;;19.75;46.83;96647.64;1686526;84;20127;-84
2022/05/11 07:19:59;;;;;;;;;;;;;;;19.85;46.90;96652.33;1686686;85;20108;-84
2022/05/11 07:22:26;;;;;;;;;;;;;;;19.89;46.14;96650.02;1687181;85;20136;-84
2022/05/11 07:24:51;;;;;;;;;;;;;;;19.91;45.95;96646.11;1692124;85;20370;-84
2022/05/11 07:27:17;;;;;;;;;;;;;;;19.97;45.82;96651.75;1690325;85;20128;-85
2022/05/11 07:29:44;;;;;;;;;;;;;;;20.04;46.37;96652.44;1724993;83;20166;-84
2022/05/11 07:32:10;;;;;;;;;;;;;;;20.07;46.61;96652.48;1690394;84;20321;-84
2022/05/11 07:34:36;;;;;;;;;;;;;;;20.08;46.67;96650.92;1694941;84;20147;-85
2022/05/11 07:37:02;;;;;;;;;;;;;;;20.15;46.22;96650.77;1696359;84;20118;-85
2022/05/11 07:39:28;;;;;;;;;;;;;;;20.21;45.70;96643.77;1695026;84;20151;-84
2022/05/11 07:41:55;;;;;;;;;;;;;;;20.25;45.24;96647.53;1690477;83;20092;-84
2022/05/11 07:44:21;;;;;;;;;;;;;;;20.32;45.46;96642.38;1694920;84;20356;-84
2022/05/11 07:46:47;;;;;;;;;;;;;;;20.42;45.42;96639.68;1694785;83;20123;-85
2022/05/11 07:49:13;;;;;;;;;;;;;;;20.52;45.33;96645.15;1694964;84;20328;-84
2022/05/11 07:51:41;;;;;;;;;;;;;;;20.61;45.72;96638.42;1695984;84;20091;-84
2022/05/11 07:54:06;;;;;;;;;;;;;;;20.74;45.87;96635.48;1694253;84;20395;-84
2022/05/11 08:02:00;;;;;;;;;;;;;;;21.15;45.99;96620.23;1692513;84;20140;-84
2022/05/11 08:04:26;;;;;;;;;;;;;;;21.31;45.30;96619.95;1694170;84;20412;-84
2022/05/11 08:06:52;;;;;;;;;;;;;;;21.42;44.19;96621.70;1691764;84;20147;-84
2022/05/11 08:09:17;;;;;;;;;;;;;;;21.44;43.90;96616.97;1664933;85;20155;-84
2022/05/11 08:11:43;;;;;;;;;;;;;;;21.46;44.72;96622.81;1694684;85;20130;-84
2022/05/11 08:14:08;;;;;;;;;;;;;;;21.43;44.73;96624.10;1695059;85;20119;-84
2022/05/11 08:16:35;;;;;;;;;;;;;;;21.37;44.49;96622.45;1695358;84;20341;-84
2022/05/11 08:19:01;;;;;;;;;;;;;;;21.34;44.41;96618.97;1695311;85;20146;-84
2022/05/11 08:21:26;;;;;;;;;;;;;;;21.48;45.53;96625.52;1695224;85;20143;-85
2022/05/11 08:23:52;;;;;;;;;;;;;;;21.69;43.79;96625.77;1695314;85;20346;-84
2022/05/11 08:26:18;;;;;;;;;;;;;;;21.90;43.47;96621.50;1695336;85;20072;-84
2022/05/11 08:28:43;;;;;;;;;;;;;;;21.94;44.21;96619.43;1694499;84;20118;-84
2022/05/11 08:33:54;;;;;;;;;;;;;;;22.08;44.15;96623.33;1699354;83;20375;-84
2022/05/11 08:36:21;;;;;;;;;;;;;;;22.30;44.19;96619.86;1699668;84;20157;-84
2022/05/11 08:38:49;;;;;;;;;;;;;;;22.48;44.33;96631.41;1701014;83;20120;-84
2022/05/11 08:41:33;;;;;;;;;;;;;;;22.61;44.69;96619.06;1699953;83;20172;-84
2022/05/11 08:44:02;;;;;;;;;;;;;;;22.79;44.21;96619.76;1700807;84;20410;-84
2022/05/11 08:46:43;;;;;;;;;;;;;;;22.93;42.89;96624.37;1698431;85;20085;-84
2022/05/11 08:49:27;;;;;;;;;;;;;;;23.06;43.31;96619.17;1697609;83;20119;-85
2022/05/11 08:52:01;;;;;;;;;;;;;;;23.19;42.54;96621.38;1670605;86;20341;-85
2022/05/11 08:54:36;;;;;;;;;;;;;;;23.26;41.65;96617.97;1670567;86;20123;-85
2022/05/11 08:57:09;;;;;;;;;;;;;;;23.34;43.02;96619.36;1698024;84;20122;-86
2022/05/11 08:59:36;;;;;;;;;;;;;;;23.39;42.07;96622.02;1683985;85;20088;-86
2022/05/11 09:02:05;;;;;;;;;;;;;;;23.46;40.88;96613.86;1706701;84;20086;-85
2022/05/11 09:04:41;;;;;;;;;;;;;;;23.48;41.17;96618.38;1712455;84;20118;-85
2022/05/11 09:07:09;;;;;;;;;;;;;;;23.50;40.77;96619.70;1698904;84;20171;-85
2022/05/11 09:09:35;;;;;;;;;;;;;;;23.51;40.77;96621.83;1668260;84;20148;-85
2022/05/11 09:12:01;;;;;;;;;;;;;;;23.55;40.66;96618.39;1698350;84;20167;-85
2022/05/11 09:14:33;;;;;;;;;;;;;;;23.65;42.17;96619.81;1703884;83;20121;-85
2022/05/11 09:16:59;;;;;;;;;;;;;;;23.73;41.72;96613.20;1699684;84;20105;-85
2022/05/11 09:19:32;;;;;;;;;;;;;;;23.76;40.65;96607.92;1683295;84;20123;-85
2022/05/11 09:22:14;;;;;;;;;;;;;;;23.85;40.69;96620.41;1698510;85;20156;-86
2022/05/11 09:24:47;;;;;;;;;;;;;;;23.93;41.22;96619.13;1653711;84;20239;-85
2022/05/11 09:27:30;;;;;;;;;;;;;;;24.06;41.84;96628.44;1681351;84;20112;-85
2022/05/11 09:30:18;;;;;;;;;;;;;;;24.12;40.90;96624.75;1709741;84;20144;-85
2022/05/11 09:32:44;;;;;;;;;;;;;;;24.16;40.75;96621.31;1709976;84;20350;-85
2022/05/11 09:35:34;;;;;;;;;;;;;;;24.14;41.12;96619.98;1710504;83;20094;-85
2022/05/11 09:38:03;;;;;;;;;;;;;;;24.12;40.61;96617.59;1730929;83;20468;-85
2022/05/11 09:40:30;;;;;;;;;;;;;;;24.13;40.39;96623.70;1709939;84;20090;-85
2022/05/11 09:43:00;;;;;;;;;;;;;;;24.14;40.99;96627.94;1674398;84;20117;-85
2022/05/11 09:45:47;;;;;;;;;;;;;;;24.18;41.44;96621.84;1730611;83;20277;-85
2022/05/11 09:48:18;;;;;;;;;;;;;;;24.27;41.06;96617.36;1712548;84;20122;-85
2022/05/11 09:50:47;;;;;;;;;;;;;;;24.32;42.25;96626.15;1712525;84;20339;-85
2022/05/11 09:53:22;;;;;;;;;;;;;;;24.38;41.59;96617.65;1712468;84;20148;-85
2022/05/11 09:55:48;;;;;;;;;;;;;;;24.39;40.67;96616.06;1712737;84;20359;-85
2022/05/11 09:58:30;;;;;;;;;;;;;;;24.42;41.04;96624.85;1712196;84;20173;-85
2022/05/11 10:01:14;;;;;;;;;;;;;;;24.46;40.19;96617.94;1712491;84;20134;-86
2022/05/11 10:03:47;;;;;;;;;;;;;;;24.49;41.93;96615.28;1712562;84;20130;-85
2022/05/11 10:06:13;;;;;;;;;;;;;;;24.57;41.64;96613.95;1712559;84;20395;-85
2022/05/11 10:08:38;;;;;;;;;;;;;;;24.68;40.69;96607.59;1712490;84;20161;-85
2022/05/11 10:11:07;;;;;;;;;;;;;;;24.72;40.22;96613.95;1712639;84;20098;-85
2022/05/11 10:13:37;;;;;;;;;;;;;;;24.76;40.09;96608.40;1688218;84;20094;-85
2022/05/11 10:21:56;;;;;;;;;;;;;;;25.05;40.12;96609.45;1712420;84;20189;-85
2022/05/11 10:24:29;;;;;;;;;;;;;;;24.91;40.35;96605.73;1693569;84;20332;-85
2022/05/11 10:27:07;;;;;;;;;;;;;;;25.05;41.05;96597.48;1683169;85;20131;-85
2022/05/11 10:30:03;;;;;;;;;;;;;;;25.12;40.57;96606.00;1697490;84;20124;-85
2022/05/11 10:32:35;;;;;;;;;;;;;;;25.12;39.72;96596.69;1697562;84;20123;-85
2022/05/11 10:35:21;;;;;;;;;;;;;;;25.16;41.51;96600.13;1696998;84;20119;-85
2022/05/11 10:38:06;;;;;;;;;;;;;;;25.25;39.88;96599.86;1697255;85;20122;-85
2022/05/11 10:40:34;;;;;;;;;;;;;;;25.37;40.26;96600.34;1696961;85;20139;-85
2022/05/11 10:43:07;;;;;;;;;;;;;;;25.50;40.10;96607.76;1696613;84;20127;-85
2022/05/11 10:45:52;;;;;;;;;;;;;;;25.63;39.93;96605.06;1697276;85;20095;-85
2022/05/11 10:48:28;;;;;;;;;;;;;;;25.84;39.83;96607.13;1697128;85;20110;-85
2022/05/11 10:51:04;;;;;;;;;;;;;;;25.94;39.54;96605.76;1697208;85;20172;-85
2022/05/11 10:53:39;;;;;;;;;;;;;;;25.88;38.99;96596.22;1697062;85;20389;-85
2022/05/11 10:56:11;;;;;;;;;;;;;;;25.57;37.20;96598.17;1697295;85;20119;-85
2022/05/11 10:59:05;;;;;;;;;;;;;;;25.40;38.80;96597.96;1697165;85;20163;-86
2022/05/11 11:01:44;;;;;;;;;;;;;;;25.33;37.17;96597.97;1676977;85;20099;-85
2022/05/11 11:04:25;;;;;;;;;;;;;;;25.29;38.46;96595.06;1675026;85;22740;-85
2022/05/11 11:07:18;;;;;;;;;;;;;;;25.38;38.03;96591.30;1689259;85;20123;-86
2022/05/11 11:09:54;;;;;;;;;;;;;;;25.45;37.39;96590.48;1697344;85;20154;-85
2022/05/11 11:12:39;;;;;;;;;;;;;;;25.48;37.26;96593.94;1697189;85;20380;-85
2022/05/11 11:15:09;;;;;;;;;;;;;;;25.52;36.20;96584.33;1696881;84;20368;-85
2022/05/11 11:17:35;;;;;;;;;;;;;;;25.64;36.62;96588.02;1697130;84;20538;-86
2022/05/11 11:20:03;;;;;;;;;;;;;;;25.76;36.94;96577.10;1697378;85;20122;-85
2022/05/11 11:22:49;;;;;;;;;;;;;;;25.81;38.31;96577.06;1697393;85;20140;-86
2022/05/11 11:25:18;;;;;;;;;;;;;;;25.87;37.87;96575.45;1696700;85;20436;-85
2022/05/11 11:28:11;;;;;;;;;;;;;;;26.00;37.67;96580.69;1697483;85;20091;-85
2022/05/11 11:30:38;;;;;;;;;;;;;;;26.06;36.31;96579.61;1697349;85;20118;-85
2022/05/11 11:33:15;;;;;;;;;;;;;;;26.11;36.11;96574.24;1707545;84;20099;-86
2022/05/11 11:35:45;;;;;;;;;;;;;;;26.18;35.43;96576.58;1710573;84;20305;-85
2022/05/11 11:38:13;;;;;;;;;;;;;;;26.09;35.83;96576.92;1709037;84;20174;-85
2022/05/11 11:40:38;;;;;;;;;;;;;;;26.04;37.30;96573.77;1681140;84;20120;-85
2022/05/11 11:45:56;;;;;;;;;;;;;;;26.05;36.91;96570.03;1709970;84;20372;-85
2022/05/11 11:48:23;;;;;;;;;;;;;;;26.10;36.85;96571.31;1710446;84;20090;-85
2022/05/11 11:50:58;;;;;;;;;;;;;;;26.16;35.71;96574.73;1710411;84;20102;-85
2022/05/11 11:53:36;;;;;;;;;;;;;;;26.17;36.41;96576.33;1710493;84;20152;-85
2022/05/11 11:56:26;;;;;;;;;;;;;;;26.19;35.93;96568.31;1682260;84;20368;-85
2022/05/11 11:59:09;;;;;;;;;;;;;;;26.28;37.30;96565.34;1710388;84;20114;-85
2022/05/11 12:01:40;;;;;;;;;;;;;;;26.38;36.75;96559.19;1709637;84;20382;-85
2022/05/11 12:04:12;;;;;;;;;;;;;;;26.43;36.08;96561.00;1709111;84;20129;-85
2022/05/11 12:15:03;;;;;;;;;;;;;;;26.66;35.63;96548.28;1710398;84;20183;-85
2022/05/11 12:17:34;;;;;;;;;;;;;;;26.69;35.75;96546.95;1710659;84;20155;-85
2022/05/11 12:20:13;;;;;;;;;;;;;;;26.61;34.75;96537.67;1710346;84;20110;-85
2022/05/11 12:22:47;;;;;;;;;;;;;;;26.56;34.79;96533.73;1709176;84;20107;-85
2022/05/11 12:25:28;;;;;;;;;;;;;;;26.52;35.44;96538.83;1710523;84;20118;-86
2022/05/11 12:27:57;;;;;;;;;;;;;;;26.43;35.48;96537.03;1710219;84;20150;-85
2022/05/11 12:30:26;;;;;;;;;;;;;;;26.31;35.48;96536.02;1710359;84;20335;-85
2022/05/11 12:32:59;;;;;;;;;;;;;;;26.25;36.20;96534.47;1702172;84;20353;-85
2022/05/11 12:35:29;;;;;;;;;;;;;;;26.22;36.20;96526.51;1696116;85;20091;-86
2022/05/11 12:38:00;;;;;;;;;;;;;;;26.17;36.69;96528.39;1697229;85;20369;-85
2022/05/11 12:40:26;;;;;;;;;;;;;;;26.10;38.00;96526.05;1697415;85;20151;-85
2022/05/11 12:42:54;;;;;;;;;;;;;;;26.06;36.97;96526.35;1697280;85;20084;-85
2022/05/11 12:45:40;;;;;;;;;;;;;;;26.06;37.18;96515.70;1696771;85;20123;-85
2022/05/11 12:48:06;;;;;;;;;;;;;;;26.27;35.51;96520.34;1697362;84;20258;-85
2022/05/11 12:50:34;;;;;;;;;;;;;;;26.44;35.38;96517.30;1697013;85;20142;-85
2022/05/11 12:53:17;;;;;;;;;;;;;;;26.50;35.60;96509.52;1697048;85;20192;-85
2022/05/11 12:55:46;;;;;;;;;;;;;;;26.61;35.67;96511.81;1697228;85;20088;-85
2022/05/11 12:58:27;;;;;;;;;;;;;;;26.71;34.54;96510.94;1696609;85;20110;-86
2022/05/11 13:01:02;;;;;;;;;;;;;;;26.76;34.48;96520.20;1696221;84;20116;-85
2022/05/11 13:03:33;;;;;;;;;;;;;;;26.80;34.68;96517.23;1696141;84;20472;-85
2022/05/11 13:06:05;;;;;;;;;;;;;;;26.84;34.81;96512.91;1697221;85;20112;-86
2022/05/11 13:08:34;;;;;;;;;;;;;;;26.96;34.62;96513.08;1682126;85;20415;-85
2022/05/11 13:11:00;;;;;;;;;;;;;;;26.92;34.66;96507.52;1695929;85;20179;-85
2022/05/11 13:13:29;;;;;;;;;;;;;;;26.73;34.67;96517.31;1686750;83;20159;-85
2022/05/11 13:16:07;;;;;;;;;;;;;;;26.66;34.87;96514.17;1676030;85;20147;-86
2022/05/11 13:18:33;;;;;;;;;;;;;;;26.72;36.82;96519.73;1683688;84;20120;-86
2022/05/11 13:21:00;;;;;;;;;;;;;;;26.75;35.22;96511.16;1679616;84;20093;-85
2022/05/11 13:23:34;;;;;;;;;;;;;;;26.72;35.58;96505.07;1671104;84;20108;-85
2022/05/11 13:26:05;;;;;;;;;;;;;;;26.77;34.90;96498.34;1695114;84;20411;-85
2022/05/11 13:28:41;;;;;;;;;;;;;;;26.79;33.13;96494.31;1699812;83;20092;-86
2022/05/11 13:31:27;;;;;;;;;;;;;;;26.75;33.30;96501.84;1694847;83;20432;-86
2022/05/11 13:33:54;;;;;;;;;;;;;;;26.71;33.67;96498.95;1704672;83;20105;-85
2022/05/11 13:36:22;;;;;;;;;;;;;;;26.69;34.10;96495.77;1709108;83;20431;-84
2022/05/11 13:38:51;;;;;;;;;;;;;;;26.72;32.66;96499.20;1710506;83;20118;-85
2022/05/11 13:41:20;;;;;;;;;;;;;;;26.69;33.15;96490.98;1709854;83;20187;-86